createdAt,value
2023-05-28T00:00:45.499Z,4.78
2023-05-28T00:03:13.247Z,5.95
2023-05-28T00:05:39.989Z,6.40
2023-05-28T00:08:06.680Z,4.88
2023-05-28T00:10:33.405Z,5.13
2023-05-28T00:13:00.271Z,5.13
2023-05-28T00:15:27.152Z,6.80
2023-05-28T00:17:54.302Z,7.00
2023-05-28T00:20:21.542Z,5.20
2023-05-28T00:22:48.604Z,5.68
2023-05-28T00:25:15.689Z,7.30
2023-05-28T00:27:42.360Z,7.32
2023-05-28T00:30:09.325Z,6.05
2023-05-28T00:32:36.068Z,5.18
2023-05-28T00:35:03.266Z,5.82
2023-05-28T00:37:29.913Z,4.90
2023-05-28T00:39:56.572Z,5.15
2023-05-28T00:42:23.640Z,5.25
2023-05-28T00:44:50.742Z,5.40
2023-05-28T00:47:17.440Z,5.70
2023-05-28T00:49:44.512Z,5.28
2023-05-28T00:52:11.736Z,5.90
2023-05-28T00:54:38.318Z,4.65
2023-05-28T00:57:05.492Z,6.03
2023-05-28T00:59:35.121Z,5.65
2023-05-28T01:02:02.499Z,6.70
2023-05-28T01:04:32.190Z,6.32
2023-05-28T01:06:58.979Z,7.15
2023-05-28T01:09:26.090Z,5.88
2023-05-28T01:11:53.319Z,5.88
2023-05-28T01:14:20.684Z,6.07
2023-05-28T01:16:49.521Z,6.65
2023-05-28T01:19:19.919Z,5.38
2023-05-28T01:21:47.492Z,7.53
2023-05-28T01:24:14.431Z,4.90
2023-05-28T01:26:42.088Z,4.97
2023-05-28T01:29:16.671Z,5.15
2023-05-28T01:31:43.683Z,4.30
2023-05-28T01:34:11.615Z,6.15
2023-05-28T01:36:43.464Z,4.75
2023-05-28T01:39:13.222Z,5.82
2023-05-28T01:41:40.070Z,5.72
2023-05-28T01:44:08.037Z,5.05
2023-05-28T01:46:34.671Z,5.10
2023-05-28T01:49:01.720Z,5.25
2023-05-28T01:51:28.343Z,6.05
2023-05-28T01:53:54.958Z,5.90
2023-05-28T01:56:21.737Z,5.00
2023-05-28T01:58:48.370Z,5.60
2023-05-28T02:01:33.967Z,5.15
2023-05-28T02:04:01.181Z,5.80
2023-05-28T02:06:30.146Z,4.70
2023-05-28T02:08:57.395Z,4.70
2023-05-28T02:11:24.149Z,5.68
2023-05-28T02:13:50.910Z,5.95
2023-05-28T02:16:18.490Z,5.13
2023-05-28T02:18:45.920Z,4.65
2023-05-28T02:21:13.181Z,5.25
2023-05-28T02:23:45.237Z,4.97
2023-05-28T02:26:11.917Z,4.90
2023-05-28T02:28:38.825Z,5.97
2023-05-28T02:31:05.668Z,5.72
2023-05-28T02:33:34.180Z,5.45
2023-05-28T02:36:00.951Z,6.28
2023-05-28T02:38:27.654Z,5.07
2023-05-28T02:40:54.390Z,5.95
2023-05-28T02:43:21.043Z,6.13
2023-05-28T02:45:47.712Z,6.00
2023-05-28T02:48:15.047Z,5.65
2023-05-28T02:50:41.706Z,4.80
2023-05-28T02:53:08.301Z,4.85
2023-05-28T02:55:34.976Z,5.32
2023-05-28T02:58:02.025Z,7.32
2023-05-28T03:00:29.068Z,5.03
2023-05-28T03:02:56.171Z,5.07
2023-05-28T03:05:23.746Z,5.57
2023-05-28T03:07:50.478Z,5.25
2023-05-28T03:10:17.301Z,5.00
2023-05-28T03:12:43.932Z,4.80
2023-05-28T03:15:10.982Z,5.85
2023-05-28T03:17:37.684Z,5.00
2023-05-28T03:20:04.682Z,5.22
2023-05-28T03:22:31.798Z,5.30
2023-05-28T03:24:58.441Z,5.82
2023-05-28T03:27:25.318Z,5.65
2023-05-28T03:29:51.972Z,5.47
2023-05-28T03:32:18.625Z,6.20
2023-05-28T03:34:45.382Z,4.82
2023-05-28T03:37:12.030Z,5.70
2023-05-28T03:39:38.921Z,5.97
2023-05-28T03:42:06.637Z,4.65
2023-05-28T03:44:33.428Z,4.65
2023-05-28T03:47:00.141Z,5.15
2023-05-28T03:49:26.764Z,5.82
2023-05-28T03:51:53.454Z,5.18
2023-05-28T03:54:20.136Z,4.82
2023-05-28T03:56:46.783Z,4.90
2023-05-28T03:59:13.368Z,5.28
2023-05-28T04:01:40.002Z,4.50
2023-05-28T04:04:07.173Z,6.38
2023-05-28T04:06:34.045Z,5.07
2023-05-28T04:09:00.953Z,5.65
2023-05-28T04:11:30.848Z,6.28
2023-05-28T04:13:57.558Z,5.55
2023-05-28T04:16:24.978Z,5.22
2023-05-28T04:18:51.875Z,5.82
2023-05-28T04:21:18.925Z,5.90
2023-05-28T04:23:45.814Z,5.72
2023-05-28T04:26:12.486Z,5.57
2023-05-28T04:28:39.520Z,5.55
2023-05-28T04:31:06.228Z,4.93
2023-05-28T04:33:33.093Z,4.78
2023-05-28T04:36:00.041Z,4.47
2023-05-28T04:38:30.039Z,5.40
2023-05-28T04:40:56.992Z,4.50
2023-05-28T04:43:23.629Z,5.70
2023-05-28T04:45:50.524Z,4.97
2023-05-28T04:48:17.879Z,5.25
2023-05-28T04:50:44.603Z,5.45
2023-05-28T04:53:11.314Z,4.90
2023-05-28T04:55:38.210Z,5.88
2023-05-28T04:58:04.994Z,4.78
2023-05-28T05:00:32.308Z,5.30
2023-05-28T05:03:00.515Z,6.47
2023-05-28T05:05:27.445Z,4.32
2023-05-28T05:07:54.111Z,4.88
2023-05-28T05:10:22.665Z,5.07
2023-05-28T05:12:51.545Z,5.38
2023-05-28T05:15:18.288Z,5.15
2023-05-28T05:17:45.269Z,5.38
2023-05-28T05:20:12.329Z,5.15
2023-05-28T05:22:39.051Z,4.97
2023-05-28T05:25:06.168Z,5.25
2023-05-28T05:27:36.046Z,5.32
2023-05-28T05:30:03.191Z,5.78
2023-05-28T05:32:30.064Z,4.93
2023-05-28T05:34:56.766Z,5.30
2023-05-28T05:37:23.993Z,5.22
2023-05-28T05:39:50.578Z,4.40
2023-05-28T05:42:17.258Z,5.13
2023-05-28T05:44:43.884Z,5.07
2023-05-28T05:47:10.538Z,4.88
2023-05-28T05:49:37.235Z,6.00
2023-05-28T05:52:04.032Z,5.00
2023-05-28T05:54:30.744Z,4.95
2023-05-28T05:56:57.424Z,4.90
2023-05-28T05:59:24.082Z,4.65
2023-05-28T06:01:50.972Z,4.47
2023-05-28T06:04:17.702Z,4.78
2023-05-28T06:06:45.695Z,4.72
2023-05-28T06:09:12.316Z,6.18
2023-05-28T06:11:39.828Z,5.20
2023-05-28T06:14:07.544Z,5.78
2023-05-28T06:16:34.294Z,5.60
2023-05-28T06:19:00.962Z,4.78
2023-05-28T06:21:27.651Z,6.75
2023-05-28T06:23:55.438Z,4.63
2023-05-28T06:26:23.227Z,6.10
2023-05-28T06:28:49.887Z,5.30
2023-05-28T06:31:16.743Z,6.05
2023-05-28T06:33:43.570Z,5.30
2023-05-28T06:36:10.990Z,5.78
2023-05-28T06:38:37.675Z,5.15
2023-05-28T06:41:04.635Z,5.70
2023-05-28T06:43:31.437Z,6.05
2023-05-28T06:45:58.326Z,5.93
2023-05-28T06:48:24.949Z,6.13
2023-05-28T06:50:51.532Z,4.93
2023-05-28T06:53:18.421Z,5.65
2023-05-28T06:55:45.139Z,6.63
2023-05-28T06:58:11.833Z,5.65
2023-05-28T07:00:38.506Z,6.28
2023-05-28T07:03:05.193Z,5.70
2023-05-28T07:05:32.060Z,6.10
2023-05-28T07:08:00.461Z,5.40
2023-05-28T07:10:27.200Z,6.35
2023-05-28T07:12:53.879Z,4.95
2023-05-28T07:15:22.454Z,5.60
2023-05-28T07:17:52.456Z,4.30
2023-05-28T07:20:19.470Z,6.43
2023-05-28T07:22:49.484Z,6.10
2023-05-28T07:25:16.193Z,5.32
2023-05-28T07:27:42.856Z,5.05
2023-05-28T07:30:10.175Z,4.78
2023-05-28T07:32:36.890Z,5.15
2023-05-28T07:35:03.833Z,4.70
2023-05-28T07:37:30.569Z,5.40
2023-05-28T07:39:57.460Z,5.68
2023-05-28T07:42:24.316Z,4.75
2023-05-28T07:44:51.250Z,4.68
2023-05-28T07:47:17.942Z,4.72
2023-05-28T07:49:44.613Z,3.75
2023-05-28T07:52:12.796Z,3.58
2023-05-28T07:54:40.487Z,4.78
2023-05-28T07:57:07.179Z,5.10
2023-05-28T07:59:33.881Z,4.38
2023-05-28T08:02:01.633Z,4.93
2023-05-28T08:04:28.405Z,5.20
2023-05-28T08:06:55.198Z,4.97
2023-05-28T08:09:21.859Z,4.97
2023-05-28T08:11:48.576Z,4.53
2023-05-28T08:14:15.343Z,4.78
2023-05-28T08:16:42.439Z,4.53
2023-05-28T08:19:09.154Z,4.68
2023-05-28T08:21:45.179Z,4.82
2023-05-28T08:24:11.959Z,4.43
2023-05-28T08:26:38.949Z,4.47
2023-05-28T08:29:06.037Z,4.60
2023-05-28T08:31:33.006Z,4.93
2023-05-28T08:33:59.789Z,4.35
2023-05-28T08:36:26.589Z,3.95
2023-05-28T08:38:53.660Z,4.43
2023-05-28T08:41:20.581Z,4.43
2023-05-28T08:43:47.397Z,4.50
2023-05-28T08:46:15.572Z,4.45
2023-05-28T08:48:42.722Z,3.97
2023-05-28T08:51:09.411Z,4.55
2023-05-28T08:53:40.730Z,3.53
2023-05-28T08:56:09.360Z,4.40
2023-05-28T08:58:43.398Z,4.32
2023-05-28T09:01:10.297Z,3.90
2023-05-28T09:03:45.207Z,3.67
2023-05-28T09:06:13.525Z,3.65
2023-05-28T09:08:40.242Z,3.88
2023-05-28T09:11:11.278Z,3.60
2023-05-28T09:13:42.936Z,3.75
2023-05-28T09:16:09.609Z,3.50
2023-05-28T09:18:36.993Z,3.85
2023-05-28T09:21:09.627Z,3.78
2023-05-28T09:23:36.291Z,4.38
2023-05-28T09:26:03.774Z,4.05
2023-05-28T09:28:30.576Z,5.05
2023-05-28T09:31:05.696Z,4.03
2023-05-28T09:33:33.734Z,4.03
2023-05-28T09:36:01.405Z,3.88
2023-05-28T09:38:28.417Z,3.55
2023-05-28T09:40:56.615Z,4.18
2023-05-28T09:43:30.479Z,3.55
2023-05-28T09:46:12.219Z,3.20
2023-05-28T09:48:38.871Z,4.32
2023-05-28T09:51:06.114Z,4.43
2023-05-28T09:53:35.390Z,3.65
2023-05-28T09:56:02.128Z,4.80
2023-05-28T09:58:32.622Z,3.42
2023-05-28T10:01:01.840Z,3.63
2023-05-28T10:03:46.409Z,4.15
2023-05-28T10:06:15.816Z,4.00
2023-05-28T10:08:42.560Z,5.47
2023-05-28T10:11:10.773Z,4.65
2023-05-28T10:13:37.793Z,3.58
2023-05-28T10:16:05.060Z,3.72
2023-05-28T10:18:31.726Z,4.43
2023-05-28T10:20:59.433Z,3.85
2023-05-28T10:23:26.358Z,4.63
2023-05-28T10:25:53.350Z,4.70
2023-05-28T10:28:20.855Z,3.90
2023-05-28T10:30:47.694Z,4.30
2023-05-28T10:33:17.714Z,3.63
2023-05-28T10:36:07.334Z,4.07
2023-05-28T10:38:33.988Z,4.28
2023-05-28T10:41:02.389Z,3.72
2023-05-28T10:43:49.509Z,4.90
2023-05-28T10:46:19.999Z,3.60
2023-05-28T10:49:14.721Z,4.50
2023-05-28T10:51:59.003Z,4.05
2023-05-28T10:54:43.432Z,3.40
2023-05-28T10:57:12.192Z,4.78
2023-05-28T10:59:59.543Z,3.03
2023-05-28T11:02:30.129Z,4.57
2023-05-28T11:04:59.469Z,4.60
2023-05-28T11:07:42.140Z,3.65
2023-05-28T11:10:10.677Z,3.25
2023-05-28T11:12:38.487Z,4.10
2023-05-28T11:15:06.250Z,5.22
2023-05-28T11:17:42.873Z,4.13
2023-05-28T11:20:29.527Z,3.35
2023-05-28T11:22:56.634Z,3.97
2023-05-28T11:25:24.734Z,3.80
2023-05-28T11:27:51.829Z,4.00
2023-05-28T11:30:19.564Z,3.40
2023-05-28T11:32:47.316Z,3.45
2023-05-28T11:35:14.630Z,3.70
2023-05-28T11:37:42.325Z,3.15
2023-05-28T11:40:11.387Z,4.15
2023-05-28T11:42:39.718Z,3.78
2023-05-28T11:45:07.684Z,4.25
2023-05-28T11:47:35.170Z,3.90
2023-05-28T11:50:12.784Z,4.03
2023-05-28T11:52:39.760Z,3.80
2023-05-28T11:55:07.008Z,4.72
2023-05-28T11:57:35.309Z,3.42
2023-05-28T12:00:11.723Z,5.18
2023-05-28T12:05:26.544Z,3.38
2023-05-28T12:07:54.262Z,3.50
2023-05-28T12:10:22.460Z,3.72
2023-05-28T12:12:50.789Z,2.53
2023-05-28T12:15:17.831Z,4.18
2023-05-28T12:17:48.313Z,4.80
2023-05-28T12:20:21.505Z,4.18
2023-05-28T12:22:59.593Z,4.03
2023-05-28T12:25:26.656Z,4.03
2023-05-28T12:27:53.308Z,5.43
2023-05-28T12:30:19.944Z,3.45
2023-05-28T12:32:46.653Z,5.45
2023-05-28T12:35:13.570Z,9.38
2023-05-28T12:37:40.466Z,3.78
2023-05-28T12:40:07.754Z,3.83
2023-05-28T12:42:34.445Z,3.53
2023-05-28T12:45:01.100Z,4.07
2023-05-28T12:47:27.977Z,2.90
2023-05-28T12:49:54.698Z,3.47
2023-05-28T12:52:21.365Z,4.07
2023-05-28T12:54:48.079Z,5.32
2023-05-28T12:57:14.781Z,4.60
2023-05-28T12:59:41.704Z,4.30
2023-05-28T13:02:08.451Z,4.45
2023-05-28T13:04:35.204Z,4.55
2023-05-28T13:07:02.014Z,3.38
2023-05-28T13:09:28.752Z,3.28
2023-05-28T13:11:56.701Z,3.95
2023-05-28T13:14:23.422Z,4.15
2023-05-28T13:16:50.083Z,4.15
2023-05-28T13:19:16.795Z,3.38
2023-05-28T13:21:43.486Z,3.28
2023-05-28T13:24:10.322Z,3.80
2023-05-28T13:26:37.016Z,3.55
2023-05-28T13:29:05.478Z,4.35
2023-05-28T13:31:32.686Z,3.53
2023-05-28T13:34:01.151Z,4.30
2023-05-28T13:36:28.383Z,5.18
2023-05-28T13:38:56.904Z,4.53
2023-05-28T13:41:25.872Z,4.85
2023-05-28T13:43:54.398Z,5.40
2023-05-28T13:46:22.074Z,6.32
2023-05-28T13:48:49.666Z,4.72
2023-05-28T13:51:16.919Z,4.28
2023-05-28T13:53:46.773Z,4.07
2023-05-28T13:56:14.269Z,3.33
2023-05-28T13:58:41.065Z,5.15
2023-05-28T14:01:08.153Z,4.65
2023-05-28T14:03:35.079Z,4.43
2023-05-28T14:06:02.094Z,4.90
2023-05-28T14:08:28.865Z,4.40
2023-05-28T14:10:55.952Z,4.55
2023-05-28T14:13:22.894Z,4.20
2023-05-28T14:15:49.596Z,3.90
2023-05-28T14:18:16.273Z,4.45
2023-05-28T14:20:43.161Z,4.13
2023-05-28T14:23:09.793Z,4.80
2023-05-28T14:25:36.521Z,5.60
2023-05-28T14:30:37.105Z,4.35
2023-05-28T14:33:03.889Z,4.70
2023-05-28T14:35:30.745Z,5.55
2023-05-28T14:37:57.394Z,5.85
2023-05-28T14:40:24.078Z,4.68
2023-05-28T14:42:50.846Z,4.93
2023-05-28T14:45:18.178Z,7.07
2023-05-28T14:47:44.908Z,5.72
2023-05-28T14:50:11.715Z,5.93
2023-05-28T14:52:39.161Z,6.60
2023-05-28T14:55:06.082Z,6.13
2023-05-28T14:57:35.971Z,5.30
2023-05-28T15:00:07.831Z,4.38
2023-05-28T15:02:35.500Z,4.18
2023-05-28T15:05:04.534Z,4.30
2023-05-28T15:07:32.093Z,4.85
2023-05-28T15:09:58.919Z,4.65
2023-05-28T15:12:25.791Z,5.05
2023-05-28T15:14:52.492Z,4.40
2023-05-28T15:17:21.697Z,5.03
2023-05-28T15:19:49.542Z,4.82
2023-05-28T15:22:17.154Z,4.88
2023-05-28T15:24:44.084Z,4.47
2023-05-28T15:27:11.080Z,5.15
2023-05-28T15:29:40.314Z,4.95
2023-05-28T15:32:07.604Z,4.47
2023-05-28T15:34:34.608Z,4.32
2023-05-28T15:37:01.495Z,5.07
2023-05-28T15:39:28.349Z,4.18
2023-05-28T15:41:55.274Z,4.13
2023-05-28T15:44:22.227Z,6.38
2023-05-28T15:46:49.279Z,5.93
2023-05-28T15:49:16.019Z,6.53
2023-05-28T15:51:42.725Z,6.43
2023-05-28T15:54:09.485Z,6.90
2023-05-28T15:56:36.258Z,5.57
2023-05-28T15:59:02.982Z,7.05
2023-05-28T16:01:30.151Z,6.10
2023-05-28T16:03:57.347Z,5.45
2023-05-28T16:06:24.195Z,4.65
2023-05-28T16:08:51.042Z,4.35
2023-05-28T16:11:17.731Z,5.65
2023-05-28T16:13:46.891Z,5.72
2023-05-28T16:16:15.428Z,5.60
2023-05-28T16:18:44.048Z,5.97
2023-05-28T16:21:11.851Z,4.97
2023-05-28T16:23:38.535Z,6.35
2023-05-28T16:26:05.496Z,5.82
2023-05-28T16:28:33.865Z,5.45
2023-05-28T16:31:00.890Z,7.07
2023-05-28T16:33:27.748Z,6.15
2023-05-28T16:35:55.365Z,6.35
2023-05-28T16:38:22.370Z,5.65
2023-05-28T16:40:49.276Z,4.80
2023-05-28T16:43:16.235Z,4.95
2023-05-28T16:45:43.302Z,5.00
2023-05-28T16:48:11.707Z,5.03
2023-05-28T16:50:39.117Z,6.15
2023-05-28T16:53:09.599Z,5.15
2023-05-28T16:55:36.310Z,5.35
2023-05-28T16:58:03.109Z,5.38
2023-05-28T17:00:30.966Z,5.10
2023-05-28T17:02:57.734Z,6.65
2023-05-28T17:05:24.727Z,5.28
2023-05-28T17:07:51.613Z,6.57
2023-05-28T17:10:18.546Z,5.60
2023-05-28T17:12:45.642Z,5.00
2023-05-28T17:15:12.295Z,6.28
2023-05-28T17:17:39.137Z,6.05
2023-05-28T17:20:09.663Z,6.22
2023-05-28T17:22:38.426Z,6.15
2023-05-28T17:25:05.392Z,5.10
2023-05-28T17:27:32.058Z,6.35
2023-05-28T17:29:58.962Z,6.20
2023-05-28T17:32:26.559Z,6.63
2023-05-28T17:34:54.372Z,5.85
2023-05-28T17:37:21.768Z,5.20
2023-05-28T17:39:48.575Z,6.43
2023-05-28T17:42:15.213Z,5.70
2023-05-28T17:44:42.019Z,6.43
2023-05-28T17:47:08.744Z,7.82
2023-05-28T17:49:37.151Z,6.97
2023-05-28T17:52:03.957Z,8.50
2023-05-28T17:54:30.664Z,7.72
2023-05-28T17:56:58.151Z,7.88
2023-05-28T17:59:24.965Z,6.10
2023-05-28T18:01:51.730Z,6.05
2023-05-28T18:04:18.389Z,6.28
2023-05-28T18:06:45.881Z,6.00
2023-05-28T18:09:12.661Z,5.15
2023-05-28T18:11:39.278Z,5.75
2023-05-28T18:14:05.974Z,6.72
2023-05-28T18:16:32.830Z,6.95
2023-05-28T18:19:03.187Z,5.55
2023-05-28T18:21:30.632Z,7.45
2023-05-28T18:24:05.713Z,6.78
2023-05-28T18:26:32.466Z,6.60
2023-05-28T18:28:59.126Z,6.60
2023-05-28T18:31:25.766Z,6.35
2023-05-28T18:33:52.453Z,5.85
2023-05-28T18:36:20.269Z,7.03
2023-05-28T18:38:47.001Z,5.75
2023-05-28T18:41:13.737Z,7.13
2023-05-28T18:43:40.377Z,7.68
2023-05-28T18:46:09.761Z,7.68
2023-05-28T18:48:36.742Z,6.72
2023-05-28T18:51:04.245Z,6.60
2023-05-28T18:53:31.660Z,5.97
2023-05-28T18:55:58.753Z,7.95
2023-05-28T18:58:25.541Z,7.85
2023-05-28T19:00:55.946Z,8.07
2023-05-28T19:03:22.677Z,6.93
2023-05-28T19:05:49.387Z,8.98
2023-05-28T19:08:16.298Z,8.88
2023-05-28T19:10:43.017Z,7.93
2023-05-28T19:13:09.665Z,7.68
2023-05-28T19:15:36.330Z,8.55
2023-05-28T19:18:03.035Z,8.55
2023-05-28T19:20:29.846Z,9.77
2023-05-28T19:22:56.497Z,9.90
2023-05-28T19:25:23.077Z,7.88
2023-05-28T19:27:49.733Z,7.40
2023-05-28T19:30:16.569Z,9.15
2023-05-28T19:32:43.283Z,9.05
2023-05-28T19:35:09.969Z,9.13
2023-05-28T19:37:37.096Z,8.27
2023-05-28T19:40:04.794Z,7.75
2023-05-28T19:42:31.633Z,9.82
2023-05-28T19:44:58.272Z,8.43
2023-05-28T19:47:25.000Z,7.68
2023-05-28T19:49:51.697Z,9.75
2023-05-28T19:52:18.369Z,9.35
2023-05-28T19:54:47.139Z,10.90
2023-05-28T19:57:18.310Z,9.18
2023-05-28T19:59:44.893Z,8.57
2023-05-28T20:02:11.555Z,10.30
2023-05-28T20:04:43.077Z,9.23
2023-05-28T20:07:09.942Z,8.55
2023-05-28T20:09:36.831Z,8.63
2023-05-28T20:12:03.518Z,7.88
2023-05-28T20:14:31.155Z,9.15
2023-05-28T20:16:57.867Z,8.07
2023-05-28T20:19:25.209Z,8.52
2023-05-28T20:21:52.158Z,9.10
2023-05-28T20:24:18.784Z,8.02
2023-05-28T20:27:03.568Z,9.55
2023-05-28T20:29:32.659Z,9.73
2023-05-28T20:32:03.547Z,9.68
2023-05-28T20:34:31.552Z,7.47
2023-05-28T20:37:00.293Z,9.25
2023-05-28T20:39:28.874Z,10.35
2023-05-28T20:41:56.367Z,8.15
2023-05-28T20:44:23.033Z,8.60
2023-05-28T20:46:50.933Z,9.02
2023-05-28T20:49:17.788Z,8.77
2023-05-28T20:51:45.003Z,7.28
2023-05-28T20:54:11.990Z,8.45
2023-05-28T20:56:40.779Z,8.43
2023-05-28T20:59:08.140Z,7.75
2023-05-28T21:01:35.086Z,8.85
2023-05-28T21:04:01.846Z,8.60
2023-05-28T21:06:29.812Z,9.50
2023-05-28T21:08:56.586Z,8.70
2023-05-28T21:11:24.153Z,7.93
2023-05-28T21:13:52.778Z,8.73
2023-05-28T21:16:19.397Z,9.30
2023-05-28T21:18:46.313Z,10.88
2023-05-28T21:21:12.942Z,9.57
2023-05-28T21:23:39.729Z,10.25
2023-05-28T21:26:06.348Z,10.55
2023-05-28T21:28:33.049Z,10.45
2023-05-28T21:31:01.627Z,10.63
2023-05-28T21:33:28.787Z,10.98
2023-05-28T21:35:56.425Z,11.57
2023-05-28T21:38:26.297Z,10.32
2023-05-28T21:40:53.531Z,9.05
2023-05-28T21:43:20.839Z,10.10
2023-05-28T21:45:47.538Z,9.30
2023-05-28T21:48:14.719Z,8.45
2023-05-28T21:50:41.559Z,8.77
2023-05-28T21:53:08.971Z,9.68
2023-05-28T21:55:35.899Z,9.80
2023-05-28T21:58:02.566Z,9.05
2023-05-28T22:00:31.768Z,9.98
2023-05-28T22:02:59.296Z,8.98
2023-05-28T22:05:29.524Z,9.20
2023-05-28T22:07:56.289Z,9.45
2023-05-28T22:10:23.465Z,8.50
2023-05-28T22:12:50.750Z,9.57
2023-05-28T22:15:17.629Z,10.20
2023-05-28T22:17:45.702Z,9.73
2023-05-28T22:20:13.525Z,9.82
2023-05-28T22:22:40.881Z,11.07
2023-05-28T22:25:08.599Z,9.63
2023-05-28T22:27:36.068Z,10.63
2023-05-28T22:30:03.969Z,11.57
2023-05-28T22:32:30.875Z,10.35
2023-05-28T22:34:57.636Z,10.50
2023-05-28T22:37:24.407Z,11.93
2023-05-28T22:39:51.033Z,11.10
2023-05-28T22:42:17.704Z,10.32
2023-05-28T22:44:44.314Z,12.90
2023-05-28T22:47:11.005Z,11.30
2023-05-28T22:49:37.692Z,11.10
2023-05-28T22:52:04.831Z,11.43
2023-05-28T22:54:32.239Z,11.95
2023-05-28T22:56:58.895Z,11.57
2023-05-28T22:59:25.758Z,11.55
2023-05-28T23:01:52.554Z,11.05
2023-05-28T23:04:19.463Z,10.98
2023-05-28T23:06:46.858Z,12.15
2023-05-28T23:09:15.486Z,9.50
2023-05-28T23:11:43.034Z,10.05
2023-05-28T23:14:10.044Z,10.55
2023-05-28T23:16:37.028Z,8.93
2023-05-28T23:19:03.864Z,10.13
2023-05-28T23:21:32.459Z,10.50
2023-05-28T23:23:59.259Z,9.27
2023-05-28T23:26:26.679Z,9.18
2023-05-28T23:28:53.385Z,8.88
2023-05-28T23:31:20.106Z,9.40
2023-05-28T23:33:46.849Z,11.45
2023-05-28T23:36:13.905Z,9.35
2023-05-28T23:38:41.149Z,9.77
2023-05-28T23:41:07.972Z,11.48
2023-05-28T23:43:34.614Z,11.35
2023-05-28T23:46:01.347Z,12.18
2023-05-28T23:48:28.189Z,13.15
2023-05-28T23:50:54.845Z,12.77
2023-05-28T23:53:21.504Z,13.15
2023-05-28T23:55:48.178Z,12.80
2023-05-28T23:58:14.847Z,13.23
